Decoded Metar for RKTN (TAEGU in KOREA) (IATA:TAE) | Meteo·Mobile Aviation Weather
aviador You're here:

RKTN Decoded Metar

TAEGU in KOREA
Report Time2018-12-14 17:00:00
UTC Time2018-12-14 18:00:38
Flight Rules vfr VFR
Wind050° at 01 kt
W.Decomp.*RWY 13: 0.3 kt HW 1 kt LCW
W.Rank050° ranks 22
Current wind is below 050° avg. (1.5)
Visibility9999 m
Phenomena:N/A
Clouds:N/A
Expected CloudBase > 1,600 ft AGL from Temp-Dew spread
CeilingNone
Temp-8°C (ISA -23)
Dew Point-12°C (73% RH)
AAT-11.6°C
QNH1034 hPa
Density Alt-3,402 ft
Elevation115 ft
Report Wrong Elevation
Raw Report
METAR RKTN 141700Z 05001KT CAVOK M08/M12 Q1034=

Extra information for RKTN:More info

Metar Taf Metar & Taf Last 4 Metars F.Rules Stats Wind Profile Meteogram Temp Stats Airport Information Weather charts Add Link Nearby VenuesMetar ALERT Operation Metar Decoded Social comments